sensor_id;sensor_type;location;lat;lon;timestamp;temperature;humidity
27890;DHT22;15238;49.082;9.102;2022-07-18T00:00:35;17.60;78.20
27890;DHT22;15238;49.082;9.102;2022-07-18T00:02:35;17.50;78.10
27890;DHT22;15238;49.082;9.102;2022-07-18T00:04:36;17.40;78.70
27890;DHT22;15238;49.082;9.102;2022-07-18T00:06:37;17.40;78.70
27890;DHT22;15238;49.082;9.102;2022-07-18T00:08:37;17.30;78.80
27890;DHT22;15238;49.082;9.102;2022-07-18T00:10:38;17.30;79.50
27890;DHT22;15238;49.082;9.102;2022-07-18T00:12:38;17.20;79.90
27890;DHT22;15238;49.082;9.102;2022-07-18T00:14:39;17.20;80.40
27890;DHT22;15238;49.082;9.102;2022-07-18T00:16:39;17.20;80.80
27890;DHT22;15238;49.082;9.102;2022-07-18T00:18:40;17.20;81.80
27890;DHT22;15238;49.082;9.102;2022-07-18T00:20:41;17.20;82.50
27890;DHT22;15238;49.082;9.102;2022-07-18T00:22:43;17.10;82.90
27890;DHT22;15238;49.082;9.102;2022-07-18T00:24:43;17.10;82.60
27890;DHT22;15238;49.082;9.102;2022-07-18T00:26:44;17.10;82.60
27890;DHT22;15238;49.082;9.102;2022-07-18T00:28:44;17.00;82.70
27890;DHT22;15238;49.082;9.102;2022-07-18T00:30:45;17.00;82.60
27890;DHT22;15238;49.082;9.102;2022-07-18T00:32:45;17.00;83.00
27890;DHT22;15238;49.082;9.102;2022-07-18T00:34:46;17.00;83.00
27890;DHT22;15238;49.082;9.102;2022-07-18T00:36:46;16.90;83.70
27890;DHT22;15238;49.082;9.102;2022-07-18T00:38:47;16.80;83.90
27890;DHT22;15238;49.082;9.102;2022-07-18T00:40:47;16.80;84.30
27890;DHT22;15238;49.082;9.102;2022-07-18T00:42:48;16.70;85.20
27890;DHT22;15238;49.082;9.102;2022-07-18T00:44:53;16.70;85.80
27890;DHT22;15238;49.082;9.102;2022-07-18T00:46:56;16.60;86.00
27890;DHT22;15238;49.082;9.102;2022-07-18T00:48:56;16.60;86.40
27890;DHT22;15238;49.082;9.102;2022-07-18T00:50:57;16.70;86.00
27890;DHT22;15238;49.082;9.102;2022-07-18T00:52:57;16.60;86.70
27890;DHT22;15238;49.082;9.102;2022-07-18T00:54:58;16.60;86.90
27890;DHT22;15238;49.082;9.102;2022-07-18T00:56:59;16.50;87.50
27890;DHT22;15238;49.082;9.102;2022-07-18T00:59:00;16.40;88.00
27890;DHT22;15238;49.082;9.102;2022-07-18T01:01:01;16.40;88.70
27890;DHT22;15238;49.082;9.102;2022-07-18T01:03:20;16.40;89.40
27890;DHT22;15238;49.082;9.102;2022-07-18T01:05:21;16.40;89.80
27890;DHT22;15238;49.082;9.102;2022-07-18T01:07:21;16.40;90.20
27890;DHT22;15238;49.082;9.102;2022-07-18T01:09:22;16.30;90.30
27890;DHT22;15238;49.082;9.102;2022-07-18T01:11:23;16.30;90.60
27890;DHT22;15238;49.082;9.102;2022-07-18T01:13:24;16.20;91.00
27890;DHT22;15238;49.082;9.102;2022-07-18T01:15:24;16.10;91.10
27890;DHT22;15238;49.082;9.102;2022-07-18T01:17:25;16.10;91.40
27890;DHT22;15238;49.082;9.102;2022-07-18T01:19:26;16.10;91.50
27890;DHT22;15238;49.082;9.102;2022-07-18T01:21:26;16.10;91.70
27890;DHT22;15238;49.082;9.102;2022-07-18T01:23:27;16.00;91.90
27890;DHT22;15238;49.082;9.102;2022-07-18T01:25:28;16.10;92.10
27890;DHT22;15238;49.082;9.102;2022-07-18T01:27:28;16.00;92.10
27890;DHT22;15238;49.082;9.102;2022-07-18T01:29:29;16.00;92.40
27890;DHT22;15238;49.082;9.102;2022-07-18T01:31:29;16.00;92.70
27890;DHT22;15238;49.082;9.102;2022-07-18T01:33:34;16.00;92.60
27890;DHT22;15238;49.082;9.102;2022-07-18T01:35:34;16.00;92.80
27890;DHT22;15238;49.082;9.102;2022-07-18T01:37:35;16.00;93.00
27890;DHT22;15238;49.082;9.102;2022-07-18T01:39:36;16.00;93.20
27890;DHT22;15238;49.082;9.102;2022-07-18T01:41:36;15.90;93.30
27890;DHT22;15238;49.082;9.102;2022-07-18T01:43:40;15.90;93.40
27890;DHT22;15238;49.082;9.102;2022-07-18T01:45:41;15.90;93.60
27890;DHT22;15238;49.082;9.102;2022-07-18T01:47:42;15.90;93.70
27890;DHT22;15238;49.082;9.102;2022-07-18T01:49:43;15.90;93.70
27890;DHT22;15238;49.082;9.102;2022-07-18T01:51:48;15.80;94.10
27890;DHT22;15238;49.082;9.102;2022-07-18T01:53:57;15.80;94.40
27890;DHT22;15238;49.082;9.102;2022-07-18T01:56:02;15.70;94.60
27890;DHT22;15238;49.082;9.102;2022-07-18T01:58:03;15.70;94.80
27890;DHT22;15238;49.082;9.102;2022-07-18T02:00:05;15.60;94.70
27890;DHT22;15238;49.082;9.102;2022-07-18T02:02:07;15.60;95.00
27890;DHT22;15238;49.082;9.102;2022-07-18T02:04:08;15.60;95.00
27890;DHT22;15238;49.082;9.102;2022-07-18T02:06:08;15.50;95.20
27890;DHT22;15238;49.082;9.102;2022-07-18T02:08:09;15.50;95.80
27890;DHT22;15238;49.082;9.102;2022-07-18T02:10:14;15.50;95.80
27890;DHT22;15238;49.082;9.102;2022-07-18T02:12:15;15.50;96.00
27890;DHT22;15238;49.082;9.102;2022-07-18T02:14:15;15.40;96.20
27890;DHT22;15238;49.082;9.102;2022-07-18T02:16:16;15.30;96.60
27890;DHT22;15238;49.082;9.102;2022-07-18T02:18:17;15.40;96.60
27890;DHT22;15238;49.082;9.102;2022-07-18T02:20:17;15.30;96.70
27890;DHT22;15238;49.082;9.102;2022-07-18T02:22:18;15.30;96.70
27890;DHT22;15238;49.082;9.102;2022-07-18T02:24:18;15.30;96.90
27890;DHT22;15238;49.082;9.102;2022-07-18T02:26:19;15.20;96.90
27890;DHT22;15238;49.082;9.102;2022-07-18T02:28:20;15.20;97.00
27890;DHT22;15238;49.082;9.102;2022-07-18T02:30:21;15.20;97.00
27890;DHT22;15238;49.082;9.102;2022-07-18T02:32:21;15.20;97.10
27890;DHT22;15238;49.082;9.102;2022-07-18T02:34:23;15.10;97.00
27890;DHT22;15238;49.082;9.102;2022-07-18T02:36:24;15.10;97.10
27890;DHT22;15238;49.082;9.102;2022-07-18T02:38:24;15.10;97.00
27890;DHT22;15238;49.082;9.102;2022-07-18T02:40:25;15.10;96.90
27890;DHT22;15238;49.082;9.102;2022-07-18T02:42:25;15.00;96.70
27890;DHT22;15238;49.082;9.102;2022-07-18T02:44:26;15.00;96.90
27890;DHT22;15238;49.082;9.102;2022-07-18T02:46:27;15.00;96.80
27890;DHT22;15238;49.082;9.102;2022-07-18T02:48:27;15.00;97.00
27890;DHT22;15238;49.082;9.102;2022-07-18T02:50:28;15.00;97.10
27890;DHT22;15238;49.082;9.102;2022-07-18T02:52:29;15.00;97.10
27890;DHT22;15238;49.082;9.102;2022-07-18T02:54:31;15.00;97.40
27890;DHT22;15238;49.082;9.102;2022-07-18T02:56:32;14.90;97.50
27890;DHT22;15238;49.082;9.102;2022-07-18T02:58:33;14.90;97.40
27890;DHT22;15238;49.082;9.102;2022-07-18T03:00:33;14.80;97.50
27890;DHT22;15238;49.082;9.102;2022-07-18T03:02:34;14.80;97.50
27890;DHT22;15238;49.082;9.102;2022-07-18T03:04:34;14.80;97.40
27890;DHT22;15238;49.082;9.102;2022-07-18T03:06:35;14.80;97.50
27890;DHT22;15238;49.082;9.102;2022-07-18T03:08:35;14.70;97.60
27890;DHT22;15238;49.082;9.102;2022-07-18T03:10:36;14.70;97.70
27890;DHT22;15238;49.082;9.102;2022-07-18T03:12:36;14.70;97.80
27890;DHT22;15238;49.082;9.102;2022-07-18T03:14:37;14.70;97.70
27890;DHT22;15238;49.082;9.102;2022-07-18T03:16:38;14.70;98.00
27890;DHT22;15238;49.082;9.102;2022-07-18T03:18:39;14.70;97.90
27890;DHT22;15238;49.082;9.102;2022-07-18T03:20:39;14.60;97.90
27890;DHT22;15238;49.082;9.102;2022-07-18T03:22:40;14.60;98.00
27890;DHT22;15238;49.082;9.102;2022-07-18T03:24:40;14.60;98.10
27890;DHT22;15238;49.082;9.102;2022-07-18T03:26:41;14.60;98.20
27890;DHT22;15238;49.082;9.102;2022-07-18T03:28:42;14.60;98.20
27890;DHT22;15238;49.082;9.102;2022-07-18T03:30:42;14.60;98.10
27890;DHT22;15238;49.082;9.102;2022-07-18T03:32:43;14.60;98.30
27890;DHT22;15238;49.082;9.102;2022-07-18T03:34:43;14.50;98.30
27890;DHT22;15238;49.082;9.102;2022-07-18T03:36:44;14.50;98.40
27890;DHT22;15238;49.082;9.102;2022-07-18T03:38:44;14.40;98.60
27890;DHT22;15238;49.082;9.102;2022-07-18T03:40:45;14.50;98.70
27890;DHT22;15238;49.082;9.102;2022-07-18T03:42:45;14.50;98.60
27890;DHT22;15238;49.082;9.102;2022-07-18T03:44:46;14.50;98.70
27890;DHT22;15238;49.082;9.102;2022-07-18T03:46:46;14.50;98.80
27890;DHT22;15238;49.082;9.102;2022-07-18T03:48:47;14.50;98.80
27890;DHT22;15238;49.082;9.102;2022-07-18T03:50:47;14.40;99.00
27890;DHT22;15238;49.082;9.102;2022-07-18T03:52:48;14.40;99.00
27890;DHT22;15238;49.082;9.102;2022-07-18T03:54:49;14.40;99.20
27890;DHT22;15238;49.082;9.102;2022-07-18T03:56:50;14.40;99.20
27890;DHT22;15238;49.082;9.102;2022-07-18T03:58:50;14.40;99.20
27890;DHT22;15238;49.082;9.102;2022-07-18T04:00:51;14.40;99.30
27890;DHT22;15238;49.082;9.102;2022-07-18T04:02:52;14.50;99.10
27890;DHT22;15238;49.082;9.102;2022-07-18T04:04:52;14.50;99.00
27890;DHT22;15238;49.082;9.102;2022-07-18T04:06:53;14.50;99.10
27890;DHT22;15238;49.082;9.102;2022-07-18T04:08:53;14.50;99.20
27890;DHT22;15238;49.082;9.102;2022-07-18T04:10:54;14.50;99.20
27890;DHT22;15238;49.082;9.102;2022-07-18T04:12:55;14.50;99.20
27890;DHT22;15238;49.082;9.102;2022-07-18T04:14:56;14.50;99.20
27890;DHT22;15238;49.082;9.102;2022-07-18T04:16:57;14.60;99.30
27890;DHT22;15238;49.082;9.102;2022-07-18T04:18:57;14.60;99.20
27890;DHT22;15238;49.082;9.102;2022-07-18T04:20:58;14.60;99.10
27890;DHT22;15238;49.082;9.102;2022-07-18T04:23:00;14.70;99.00
27890;DHT22;15238;49.082;9.102;2022-07-18T04:25:01;14.70;99.00
27890;DHT22;15238;49.082;9.102;2022-07-18T04:27:02;14.80;98.70
27890;DHT22;15238;49.082;9.102;2022-07-18T04:29:02;14.80;98.60
27890;DHT22;15238;49.082;9.102;2022-07-18T04:31:04;14.90;98.90
27890;DHT22;15238;49.082;9.102;2022-07-18T04:33:06;14.90;98.30
27890;DHT22;15238;49.082;9.102;2022-07-18T04:35:08;14.90;98.00
27890;DHT22;15238;49.082;9.102;2022-07-18T04:37:08;14.90;98.20
27890;DHT22;15238;49.082;9.102;2022-07-18T04:39:09;15.00;98.30
27890;DHT22;15238;49.082;9.102;2022-07-18T04:41:10;15.10;98.60
27890;DHT22;15238;49.082;9.102;2022-07-18T04:43:11;15.20;98.60
27890;DHT22;15238;49.082;9.102;2022-07-18T04:45:12;15.30;98.10
27890;DHT22;15238;49.082;9.102;2022-07-18T04:47:13;15.40;97.70
27890;DHT22;15238;49.082;9.102;2022-07-18T04:49:13;15.50;97.70
27890;DHT22;15238;49.082;9.102;2022-07-18T04:53:18;15.60;96.10
27890;DHT22;15238;49.082;9.102;2022-07-18T04:55:20;15.70;95.30
27890;DHT22;15238;49.082;9.102;2022-07-18T04:57:22;15.80;95.10
27890;DHT22;15238;49.082;9.102;2022-07-18T04:59:22;15.90;95.50
27890;DHT22;15238;49.082;9.102;2022-07-18T05:01:23;16.00;95.70
27890;DHT22;15238;49.082;9.102;2022-07-18T05:03:23;16.10;95.30
27890;DHT22;15238;49.082;9.102;2022-07-18T05:05:25;16.20;95.00
27890;DHT22;15238;49.082;9.102;2022-07-18T05:07:26;16.30;94.70
27890;DHT22;15238;49.082;9.102;2022-07-18T05:09:27;16.40;93.40
27890;DHT22;15238;49.082;9.102;2022-07-18T05:11:28;16.60;93.50
27890;DHT22;15238;49.082;9.102;2022-07-18T05:13:29;16.70;93.50
27890;DHT22;15238;49.082;9.102;2022-07-18T05:15:30;16.90;93.20
27890;DHT22;15238;49.082;9.102;2022-07-18T05:17:30;17.00;93.10
27890;DHT22;15238;49.082;9.102;2022-07-18T05:19:31;17.20;92.00
27890;DHT22;15238;49.082;9.102;2022-07-18T05:21:31;17.30;91.80
27890;DHT22;15238;49.082;9.102;2022-07-18T05:23:32;17.40;91.80
27890;DHT22;15238;49.082;9.102;2022-07-18T05:25:32;17.50;91.90
27890;DHT22;15238;49.082;9.102;2022-07-18T05:27:33;17.60;91.10
27890;DHT22;15238;49.082;9.102;2022-07-18T05:29:34;17.80;91.40
27890;DHT22;15238;49.082;9.102;2022-07-18T05:31:34;17.90;91.10
27890;DHT22;15238;49.082;9.102;2022-07-18T05:33:35;18.20;91.20
27890;DHT22;15238;49.082;9.102;2022-07-18T05:35:35;18.40;90.50
27890;DHT22;15238;49.082;9.102;2022-07-18T05:37:36;18.60;90.40
27890;DHT22;15238;49.082;9.102;2022-07-18T05:39:37;18.90;89.50
27890;DHT22;15238;49.082;9.102;2022-07-18T05:41:38;19.20;89.20
27890;DHT22;15238;49.082;9.102;2022-07-18T05:43:38;19.40;87.90
27890;DHT22;15238;49.082;9.102;2022-07-18T05:45:39;19.60;86.80
27890;DHT22;15238;49.082;9.102;2022-07-18T05:47:39;19.80;85.60
27890;DHT22;15238;49.082;9.102;2022-07-18T05:49:40;20.00;85.40
27890;DHT22;15238;49.082;9.102;2022-07-18T05:51:41;20.10;84.10
27890;DHT22;15238;49.082;9.102;2022-07-18T05:53:41;20.30;83.90
27890;DHT22;15238;49.082;9.102;2022-07-18T05:55:42;20.50;83.10
27890;DHT22;15238;49.082;9.102;2022-07-18T05:57:42;20.70;80.50
27890;DHT22;15238;49.082;9.102;2022-07-18T05:59:43;20.80;79.30
27890;DHT22;15238;49.082;9.102;2022-07-18T06:01:44;21.10;78.70
27890;DHT22;15238;49.082;9.102;2022-07-18T06:03:44;21.30;77.70
27890;DHT22;15238;49.082;9.102;2022-07-18T06:05:45;21.50;77.70
27890;DHT22;15238;49.082;9.102;2022-07-18T06:07:45;21.70;77.40
27890;DHT22;15238;49.082;9.102;2022-07-18T06:09:46;21.70;75.70
27890;DHT22;15238;49.082;9.102;2022-07-18T06:11:46;21.70;75.20
27890;DHT22;15238;49.082;9.102;2022-07-18T06:13:47;21.70;75.50
27890;DHT22;15238;49.082;9.102;2022-07-18T06:15:47;22.00;75.10
27890;DHT22;15238;49.082;9.102;2022-07-18T06:17:48;22.20;74.80
27890;DHT22;15238;49.082;9.102;2022-07-18T06:19:48;22.40;73.40
27890;DHT22;15238;49.082;9.102;2022-07-18T06:21:49;22.60;72.40
27890;DHT22;15238;49.082;9.102;2022-07-18T06:23:50;22.70;71.90
27890;DHT22;15238;49.082;9.102;2022-07-18T06:25:50;22.80;70.60
27890;DHT22;15238;49.082;9.102;2022-07-18T06:27:51;22.90;71.60
27890;DHT22;15238;49.082;9.102;2022-07-18T06:29:52;23.00;69.70
27890;DHT22;15238;49.082;9.102;2022-07-18T06:31:52;23.10;70.40
27890;DHT22;15238;49.082;9.102;2022-07-18T06:33:53;23.30;67.10
27890;DHT22;15238;49.082;9.102;2022-07-18T06:35:53;23.50;66.00
27890;DHT22;15238;49.082;9.102;2022-07-18T06:37:53;23.60;65.50
27890;DHT22;15238;49.082;9.102;2022-07-18T06:39:54;23.80;64.90
27890;DHT22;15238;49.082;9.102;2022-07-18T06:41:55;24.00;65.10
27890;DHT22;15238;49.082;9.102;2022-07-18T06:43:55;24.20;64.60
27890;DHT22;15238;49.082;9.102;2022-07-18T06:45:55;24.20;62.00
27890;DHT22;15238;49.082;9.102;2022-07-18T06:47:58;24.30;59.70
27890;DHT22;15238;49.082;9.102;2022-07-18T06:49:58;24.20;60.20
27890;DHT22;15238;49.082;9.102;2022-07-18T06:51:59;24.30;61.80
27890;DHT22;15238;49.082;9.102;2022-07-18T06:53:59;24.50;61.30
27890;DHT22;15238;49.082;9.102;2022-07-18T06:56:00;24.60;59.90
27890;DHT22;15238;49.082;9.102;2022-07-18T06:58:05;24.80;60.20
27890;DHT22;15238;49.082;9.102;2022-07-18T07:00:07;24.90;59.00
27890;DHT22;15238;49.082;9.102;2022-07-18T07:02:09;25.10;58.90
27890;DHT22;15238;49.082;9.102;2022-07-18T07:04:09;25.30;59.10
27890;DHT22;15238;49.082;9.102;2022-07-18T07:06:10;25.40;60.70
27890;DHT22;15238;49.082;9.102;2022-07-18T07:08:10;25.50;58.20
27890;DHT22;15238;49.082;9.102;2022-07-18T07:10:12;25.60;56.60
27890;DHT22;15238;49.082;9.102;2022-07-18T07:12:13;25.60;56.40
27890;DHT22;15238;49.082;9.102;2022-07-18T07:14:14;25.80;55.30
27890;DHT22;15238;49.082;9.102;2022-07-18T07:16:14;26.00;55.50
27890;DHT22;15238;49.082;9.102;2022-07-18T07:18:15;26.00;54.20
27890;DHT22;15238;49.082;9.102;2022-07-18T07:20:16;26.10;53.70
27890;DHT22;15238;49.082;9.102;2022-07-18T07:22:21;26.20;54.60
27890;DHT22;15238;49.082;9.102;2022-07-18T07:24:22;26.30;54.10
27890;DHT22;15238;49.082;9.102;2022-07-18T07:26:22;26.40;54.00
27890;DHT22;15238;49.082;9.102;2022-07-18T07:28:24;26.50;54.10
27890;DHT22;15238;49.082;9.102;2022-07-18T07:30:24;26.70;53.50
27890;DHT22;15238;49.082;9.102;2022-07-18T07:32:25;26.60;52.90
27890;DHT22;15238;49.082;9.102;2022-07-18T07:34:26;26.40;52.40
27890;DHT22;15238;49.082;9.102;2022-07-18T07:36:26;26.40;52.30
27890;DHT22;15238;49.082;9.102;2022-07-18T07:38:27;26.40;52.70
27890;DHT22;15238;49.082;9.102;2022-07-18T07:40:29;26.60;52.60
27890;DHT22;15238;49.082;9.102;2022-07-18T07:42:30;26.80;51.40
27890;DHT22;15238;49.082;9.102;2022-07-18T07:44:30;26.90;52.10
27890;DHT22;15238;49.082;9.102;2022-07-18T07:46:31;27.20;52.00
27890;DHT22;15238;49.082;9.102;2022-07-18T07:48:32;27.30;52.00
27890;DHT22;15238;49.082;9.102;2022-07-18T07:50:32;27.50;50.90
27890;DHT22;15238;49.082;9.102;2022-07-18T07:52:33;27.40;49.90
27890;DHT22;15238;49.082;9.102;2022-07-18T07:54:34;27.20;49.10
27890;DHT22;15238;49.082;9.102;2022-07-18T07:56:35;27.30;49.70
27890;DHT22;15238;49.082;9.102;2022-07-18T07:58:35;27.40;50.40
27890;DHT22;15238;49.082;9.102;2022-07-18T08:00:36;27.50;48.40
27890;DHT22;15238;49.082;9.102;2022-07-18T08:02:36;27.60;47.30
27890;DHT22;15238;49.082;9.102;2022-07-18T08:04:37;27.50;47.90
27890;DHT22;15238;49.082;9.102;2022-07-18T08:06:38;27.60;47.90
27890;DHT22;15238;49.082;9.102;2022-07-18T08:08:38;27.90;47.70
27890;DHT22;15238;49.082;9.102;2022-07-18T08:10:39;28.10;46.30
27890;DHT22;15238;49.082;9.102;2022-07-18T08:12:40;28.30;46.40
27890;DHT22;15238;49.082;9.102;2022-07-18T08:14:40;28.40;47.00
27890;DHT22;15238;49.082;9.102;2022-07-18T08:16:43;28.70;47.00
27890;DHT22;15238;49.082;9.102;2022-07-18T08:18:44;28.90;47.80
27890;DHT22;15238;49.082;9.102;2022-07-18T08:20:44;29.00;47.20
27890;DHT22;15238;49.082;9.102;2022-07-18T08:22:58;29.20;46.80
27890;DHT22;15238;49.082;9.102;2022-07-18T08:24:58;29.30;47.80
27890;DHT22;15238;49.082;9.102;2022-07-18T08:26:59;29.40;46.90
27890;DHT22;15238;49.082;9.102;2022-07-18T08:28:59;29.30;47.80
27890;DHT22;15238;49.082;9.102;2022-07-18T08:31:00;29.30;47.40
27890;DHT22;15238;49.082;9.102;2022-07-18T08:33:01;29.30;47.20
27890;DHT22;15238;49.082;9.102;2022-07-18T08:35:01;29.50;47.10
27890;DHT22;15238;49.082;9.102;2022-07-18T08:37:02;29.40;47.50
27890;DHT22;15238;49.082;9.102;2022-07-18T08:39:02;29.50;46.90
27890;DHT22;15238;49.082;9.102;2022-07-18T08:41:04;29.50;47.10
27890;DHT22;15238;49.082;9.102;2022-07-18T08:43:04;29.00;47.00
27890;DHT22;15238;49.082;9.102;2022-07-18T08:45:05;29.00;47.00
27890;DHT22;15238;49.082;9.102;2022-07-18T08:47:06;28.90;47.30
27890;DHT22;15238;49.082;9.102;2022-07-18T08:49:07;29.00;47.10
27890;DHT22;15238;49.082;9.102;2022-07-18T08:51:08;29.10;46.50
27890;DHT22;15238;49.082;9.102;2022-07-18T08:53:10;29.10;46.70
27890;DHT22;15238;49.082;9.102;2022-07-18T08:55:11;29.30;46.00
27890;DHT22;15238;49.082;9.102;2022-07-18T08:57:13;29.40;44.90
27890;DHT22;15238;49.082;9.102;2022-07-18T08:59:13;29.70;44.20
27890;DHT22;15238;49.082;9.102;2022-07-18T09:01:14;29.90;43.40
27890;DHT22;15238;49.082;9.102;2022-07-18T09:03:14;30.20;43.70
27890;DHT22;15238;49.082;9.102;2022-07-18T09:05:19;30.20;43.10
27890;DHT22;15238;49.082;9.102;2022-07-18T09:07:28;29.60;43.40
27890;DHT22;15238;49.082;9.102;2022-07-18T09:09:29;29.60;43.50
27890;DHT22;15238;49.082;9.102;2022-07-18T09:11:30;30.00;43.10
27890;DHT22;15238;49.082;9.102;2022-07-18T09:15:34;30.30;41.60
27890;DHT22;15238;49.082;9.102;2022-07-18T09:17:35;30.30;41.30
27890;DHT22;15238;49.082;9.102;2022-07-18T09:19:37;29.90;41.60
27890;DHT22;15238;49.082;9.102;2022-07-18T09:21:38;30.00;42.50
27890;DHT22;15238;49.082;9.102;2022-07-18T09:23:47;30.40;42.70
27890;DHT22;15238;49.082;9.102;2022-07-18T09:25:49;30.70;41.00
27890;DHT22;15238;49.082;9.102;2022-07-18T09:27:53;30.80;40.20
27890;DHT22;15238;49.082;9.102;2022-07-18T09:32:09;31.30;40.40
27890;DHT22;15238;49.082;9.102;2022-07-18T09:34:10;31.60;40.30
27890;DHT22;15238;49.082;9.102;2022-07-18T09:36:10;31.70;41.10
27890;DHT22;15238;49.082;9.102;2022-07-18T09:38:19;31.90;40.20
27890;DHT22;15238;49.082;9.102;2022-07-18T09:40:25;31.90;39.40
27890;DHT22;15238;49.082;9.102;2022-07-18T09:42:28;31.90;38.60
27890;DHT22;15238;49.082;9.102;2022-07-18T09:44:28;31.90;38.70
27890;DHT22;15238;49.082;9.102;2022-07-18T09:46:29;32.00;38.00
27890;DHT22;15238;49.082;9.102;2022-07-18T09:48:30;32.10;38.00
27890;DHT22;15238;49.082;9.102;2022-07-18T09:50:41;32.20;38.20
27890;DHT22;15238;49.082;9.102;2022-07-18T09:52:42;32.40;39.30
27890;DHT22;15238;49.082;9.102;2022-07-18T09:54:44;32.60;39.30
27890;DHT22;15238;49.082;9.102;2022-07-18T09:56:44;32.70;39.20
27890;DHT22;15238;49.082;9.102;2022-07-18T09:58:54;32.60;38.00
27890;DHT22;15238;49.082;9.102;2022-07-18T10:00:57;32.50;37.30
27890;DHT22;15238;49.082;9.102;2022-07-18T10:02:59;32.50;37.50
27890;DHT22;15238;49.082;9.102;2022-07-18T10:05:01;32.50;37.50
27890;DHT22;15238;49.082;9.102;2022-07-18T10:07:02;32.40;38.10
27890;DHT22;15238;49.082;9.102;2022-07-18T10:09:02;32.60;36.60
27890;DHT22;15238;49.082;9.102;2022-07-18T10:11:06;32.80;37.90
27890;DHT22;15238;49.082;9.102;2022-07-18T10:13:07;32.90;36.50
27890;DHT22;15238;49.082;9.102;2022-07-18T10:15:09;32.90;35.30
27890;DHT22;15238;49.082;9.102;2022-07-18T10:17:10;32.90;36.30
27890;DHT22;15238;49.082;9.102;2022-07-18T10:19:11;32.90;35.50
27890;DHT22;15238;49.082;9.102;2022-07-18T10:21:13;32.50;35.60
27890;DHT22;15238;49.082;9.102;2022-07-18T10:25:22;32.00;36.20
27890;DHT22;15238;49.082;9.102;2022-07-18T10:27:25;32.10;36.30
27890;DHT22;15238;49.082;9.102;2022-07-18T10:29:26;32.40;36.00
27890;DHT22;15238;49.082;9.102;2022-07-18T10:31:28;32.70;36.20
27890;DHT22;15238;49.082;9.102;2022-07-18T10:33:43;33.00;35.40
27890;DHT22;15238;49.082;9.102;2022-07-18T10:36:02;33.30;35.10
27890;DHT22;15238;49.082;9.102;2022-07-18T10:38:21;33.60;35.30
27890;DHT22;15238;49.082;9.102;2022-07-18T10:40:29;33.80;34.20
27890;DHT22;15238;49.082;9.102;2022-07-18T10:42:30;33.90;33.90
27890;DHT22;15238;49.082;9.102;2022-07-18T10:44:32;33.70;34.00
27890;DHT22;15238;49.082;9.102;2022-07-18T10:49:03;33.80;34.50
27890;DHT22;15238;49.082;9.102;2022-07-18T10:51:14;33.70;35.00
27890;DHT22;15238;49.082;9.102;2022-07-18T10:53:17;33.70;34.60
27890;DHT22;15238;49.082;9.102;2022-07-18T10:57:24;33.90;34.30
27890;DHT22;15238;49.082;9.102;2022-07-18T10:59:25;33.70;34.80
27890;DHT22;15238;49.082;9.102;2022-07-18T11:01:26;33.70;35.30
27890;DHT22;15238;49.082;9.102;2022-07-18T11:03:27;33.90;35.70
27890;DHT22;15238;49.082;9.102;2022-07-18T11:07:29;33.70;35.90
27890;DHT22;15238;49.082;9.102;2022-07-18T11:09:46;33.80;35.00
27890;DHT22;15238;49.082;9.102;2022-07-18T11:12:16;33.90;35.10
27890;DHT22;15238;49.082;9.102;2022-07-18T11:17:03;34.10;34.60
27890;DHT22;15238;49.082;9.102;2022-07-18T11:21:18;34.10;35.80
27890;DHT22;15238;49.082;9.102;2022-07-18T11:23:23;34.40;34.70
27890;DHT22;15238;49.082;9.102;2022-07-18T11:25:26;34.10;35.30
27890;DHT22;15238;49.082;9.102;2022-07-18T11:27:28;34.10;34.60
27890;DHT22;15238;49.082;9.102;2022-07-18T11:29:40;34.30;35.00
27890;DHT22;15238;49.082;9.102;2022-07-18T11:33:48;34.60;34.00
27890;DHT22;15238;49.082;9.102;2022-07-18T11:35:49;34.60;34.10
27890;DHT22;15238;49.082;9.102;2022-07-18T11:37:52;34.80;33.60
27890;DHT22;15238;49.082;9.102;2022-07-18T11:39:52;34.60;34.10
27890;DHT22;15238;49.082;9.102;2022-07-18T11:41:53;34.70;34.10
27890;DHT22;15238;49.082;9.102;2022-07-18T11:43:54;34.80;34.00
27890;DHT22;15238;49.082;9.102;2022-07-18T11:47:59;34.50;34.00
27890;DHT22;15238;49.082;9.102;2022-07-18T11:50:00;34.40;34.20
27890;DHT22;15238;49.082;9.102;2022-07-18T11:52:02;33.80;34.30
27890;DHT22;15238;49.082;9.102;2022-07-18T11:54:03;33.70;35.70
27890;DHT22;15238;49.082;9.102;2022-07-18T11:56:05;33.90;35.00
27890;DHT22;15238;49.082;9.102;2022-07-18T11:58:13;34.10;34.60
27890;DHT22;15238;49.082;9.102;2022-07-18T12:00:19;34.40;34.00
27890;DHT22;15238;49.082;9.102;2022-07-18T12:02:20;34.40;34.20
27890;DHT22;15238;49.082;9.102;2022-07-18T12:04:23;34.60;33.50
27890;DHT22;15238;49.082;9.102;2022-07-18T12:06:24;34.60;33.40
27890;DHT22;15238;49.082;9.102;2022-07-18T12:08:39;34.60;33.40
27890;DHT22;15238;49.082;9.102;2022-07-18T12:10:40;34.70;33.70
27890;DHT22;15238;49.082;9.102;2022-07-18T12:12:41;34.80;33.20
27890;DHT22;15238;49.082;9.102;2022-07-18T12:14:42;35.00;33.70
27890;DHT22;15238;49.082;9.102;2022-07-18T12:16:46;35.10;33.00
27890;DHT22;15238;49.082;9.102;2022-07-18T12:18:55;35.10;32.30
27890;DHT22;15238;49.082;9.102;2022-07-18T12:21:09;34.10;32.90
27890;DHT22;15238;49.082;9.102;2022-07-18T12:23:10;34.00;33.70
27890;DHT22;15238;49.082;9.102;2022-07-18T12:25:12;33.90;33.90
27890;DHT22;15238;49.082;9.102;2022-07-18T12:27:16;33.80;35.40
27890;DHT22;15238;49.082;9.102;2022-07-18T12:29:18;33.90;34.00
27890;DHT22;15238;49.082;9.102;2022-07-18T12:31:39;33.30;34.40
27890;DHT22;15238;49.082;9.102;2022-07-18T12:34:06;33.50;35.30
27890;DHT22;15238;49.082;9.102;2022-07-18T12:36:05;34.00;35.00
27890;DHT22;15238;49.082;9.102;2022-07-18T12:38:09;34.50;33.60
27890;DHT22;15238;49.082;9.102;2022-07-18T12:40:11;34.80;33.50
27890;DHT22;15238;49.082;9.102;2022-07-18T12:42:30;35.00;33.10
27890;DHT22;15238;49.082;9.102;2022-07-18T12:44:31;35.00;32.50
27890;DHT22;15238;49.082;9.102;2022-07-18T12:46:32;35.10;32.10
27890;DHT22;15238;49.082;9.102;2022-07-18T12:48:33;34.80;31.80
27890;DHT22;15238;49.082;9.102;2022-07-18T12:50:35;34.60;32.60
27890;DHT22;15238;49.082;9.102;2022-07-18T12:52:36;34.80;32.60
27890;DHT22;15238;49.082;9.102;2022-07-18T12:54:36;34.80;31.90
27890;DHT22;15238;49.082;9.102;2022-07-18T12:56:37;34.80;32.80
27890;DHT22;15238;49.082;9.102;2022-07-18T12:58:37;34.80;32.50
27890;DHT22;15238;49.082;9.102;2022-07-18T13:00:38;34.60;32.00
27890;DHT22;15238;49.082;9.102;2022-07-18T13:02:39;34.50;32.50
27890;DHT22;15238;49.082;9.102;2022-07-18T13:04:39;34.60;33.30
27890;DHT22;15238;49.082;9.102;2022-07-18T13:06:40;34.70;32.90
27890;DHT22;15238;49.082;9.102;2022-07-18T13:08:40;34.90;33.20
27890;DHT22;15238;49.082;9.102;2022-07-18T13:10:41;35.10;32.70
27890;DHT22;15238;49.082;9.102;2022-07-18T13:12:42;35.10;32.50